sensor_id;sensor_type;location;lat;lon;timestamp;P1;durP1;ratioP1;P2;durP2;ratioP2
1725;SDS011;41776;48.260;8.928;2023-12-22T00:01:57;8.33;;;1.50;;
1725;SDS011;41776;48.260;8.928;2023-12-22T00:04:23;8.53;;;1.70;;
1725;SDS011;41776;48.260;8.928;2023-12-22T00:06:51;8.57;;;1.30;;
1725;SDS011;41776;48.260;8.928;2023-12-22T00:09:17;1.73;;;1.30;;
1725;SDS011;41776;48.260;8.928;2023-12-22T00:11:44;3.73;;;1.00;;
1725;SDS011;41776;48.260;8.928;2023-12-22T00:14:10;5.50;;;1.17;;
1725;SDS011;41776;48.260;8.928;2023-12-22T00:16:37;2.40;;;1.00;;
1725;SDS011;41776;48.260;8.928;2023-12-22T00:19:04;4.13;;;1.50;;
1725;SDS011;41776;48.260;8.928;2023-12-22T00:21:30;4.03;;;1.30;;
1725;SDS011;41776;48.260;8.928;2023-12-22T00:23:58;4.03;;;1.00;;
1725;SDS011;41776;48.260;8.928;2023-12-22T00:26:25;2.17;;;0.87;;
1725;SDS011;41776;48.260;8.928;2023-12-22T00:28:51;6.47;;;1.00;;
1725;SDS011;41776;48.260;8.928;2023-12-22T00:31:18;2.57;;;1.20;;
1725;SDS011;41776;48.260;8.928;2023-12-22T00:33:44;2.57;;;0.93;;
1725;SDS011;41776;48.260;8.928;2023-12-22T00:36:11;2.63;;;1.03;;
1725;SDS011;41776;48.260;8.928;2023-12-22T00:38:38;6.13;;;2.30;;
1725;SDS011;41776;48.260;8.928;2023-12-22T00:41:05;7.13;;;1.47;;
1725;SDS011;41776;48.260;8.928;2023-12-22T00:43:32;13.10;;;4.13;;
1725;SDS011;41776;48.260;8.928;2023-12-22T00:46:01;5.07;;;1.53;;
1725;SDS011;41776;48.260;8.928;2023-12-22T00:48:28;6.70;;;1.53;;
1725;SDS011;41776;48.260;8.928;2023-12-22T00:50:54;6.53;;;1.37;;
1725;SDS011;41776;48.260;8.928;2023-12-22T00:53:21;4.40;;;1.30;;
1725;SDS011;41776;48.260;8.928;2023-12-22T00:55:47;11.67;;;1.67;;
1725;SDS011;41776;48.260;8.928;2023-12-22T00:58:15;7.87;;;1.40;;
1725;SDS011;41776;48.260;8.928;2023-12-22T01:00:42;10.93;;;1.47;;
1725;SDS011;41776;48.260;8.928;2023-12-22T01:03:08;5.87;;;1.20;;
1725;SDS011;41776;48.260;8.928;2023-12-22T01:05:36;4.13;;;1.30;;
1725;SDS011;41776;48.260;8.928;2023-12-22T01:08:03;5.37;;;1.60;;
1725;SDS011;41776;48.260;8.928;2023-12-22T01:10:30;8.63;;;1.63;;
1725;SDS011;41776;48.260;8.928;2023-12-22T01:12:56;6.50;;;1.80;;
1725;SDS011;41776;48.260;8.928;2023-12-22T01:15:24;5.30;;;1.60;;
1725;SDS011;41776;48.260;8.928;2023-12-22T01:17:51;7.63;;;1.33;;
1725;SDS011;41776;48.260;8.928;2023-12-22T01:20:17;11.23;;;1.80;;
1725;SDS011;41776;48.260;8.928;2023-12-22T01:22:44;9.70;;;1.77;;
1725;SDS011;41776;48.260;8.928;2023-12-22T01:25:10;5.17;;;1.50;;
1725;SDS011;41776;48.260;8.928;2023-12-22T01:27:37;7.63;;;1.70;;
1725;SDS011;41776;48.260;8.928;2023-12-22T01:30:03;6.57;;;2.10;;
1725;SDS011;41776;48.260;8.928;2023-12-22T01:32:32;8.43;;;1.50;;
1725;SDS011;41776;48.260;8.928;2023-12-22T01:35:01;9.00;;;1.50;;
1725;SDS011;41776;48.260;8.928;2023-12-22T01:37:31;10.73;;;1.80;;
1725;SDS011;41776;48.260;8.928;2023-12-22T01:39:58;4.60;;;1.33;;
1725;SDS011;41776;48.260;8.928;2023-12-22T01:42:24;4.93;;;1.37;;
1725;SDS011;41776;48.260;8.928;2023-12-22T01:44:51;11.87;;;1.67;;
1725;SDS011;41776;48.260;8.928;2023-12-22T01:47:17;8.87;;;1.77;;
1725;SDS011;41776;48.260;8.928;2023-12-22T01:49:45;4.03;;;1.30;;
1725;SDS011;41776;48.260;8.928;2023-12-22T01:52:12;6.90;;;1.23;;
1725;SDS011;41776;48.260;8.928;2023-12-22T01:54:39;3.87;;;1.37;;
1725;SDS011;41776;48.260;8.928;2023-12-22T01:57:05;4.23;;;1.50;;
1725;SDS011;41776;48.260;8.928;2023-12-22T01:59:32;3.33;;;1.30;;
1725;SDS011;41776;48.260;8.928;2023-12-22T02:02:00;5.90;;;1.33;;
1725;SDS011;41776;48.260;8.928;2023-12-22T02:04:28;3.97;;;1.67;;
1725;SDS011;41776;48.260;8.928;2023-12-22T02:06:58;4.73;;;1.80;;
1725;SDS011;41776;48.260;8.928;2023-12-22T02:09:26;11.03;;;1.83;;
1725;SDS011;41776;48.260;8.928;2023-12-22T02:11:53;6.67;;;1.93;;
1725;SDS011;41776;48.260;8.928;2023-12-22T02:14:20;8.10;;;1.80;;
1725;SDS011;41776;48.260;8.928;2023-12-22T02:16:48;7.73;;;2.10;;
1725;SDS011;41776;48.260;8.928;2023-12-22T02:19:23;7.93;;;1.80;;
1725;SDS011;41776;48.260;8.928;2023-12-22T02:22:00;11.03;;;1.77;;
1725;SDS011;41776;48.260;8.928;2023-12-22T02:24:29;5.90;;;1.53;;
1725;SDS011;41776;48.260;8.928;2023-12-22T02:26:56;10.63;;;1.90;;
1725;SDS011;41776;48.260;8.928;2023-12-22T02:29:30;6.33;;;1.70;;
1725;SDS011;41776;48.260;8.928;2023-12-22T02:32:00;4.90;;;1.27;;
1725;SDS011;41776;48.260;8.928;2023-12-22T02:34:30;2.90;;;0.80;;
1725;SDS011;41776;48.260;8.928;2023-12-22T02:37:01;3.65;;;1.00;;
1725;SDS011;41776;48.260;8.928;2023-12-22T02:39:31;2.67;;;1.10;;
1725;SDS011;41776;48.260;8.928;2023-12-22T02:41:58;1.73;;;0.80;;
1725;SDS011;41776;48.260;8.928;2023-12-22T02:44:25;2.43;;;0.90;;
1725;SDS011;41776;48.260;8.928;2023-12-22T02:46:53;1.87;;;1.03;;
1725;SDS011;41776;48.260;8.928;2023-12-22T02:49:19;1.90;;;0.97;;
1725;SDS011;41776;48.260;8.928;2023-12-22T02:51:46;3.10;;;1.17;;
1725;SDS011;41776;48.260;8.928;2023-12-22T02:54:12;2.17;;;0.90;;
1725;SDS011;41776;48.260;8.928;2023-12-22T02:56:40;2.13;;;1.30;;
1725;SDS011;41776;48.260;8.928;2023-12-22T02:59:07;8.43;;;1.17;;
1725;SDS011;41776;48.260;8.928;2023-12-22T03:01:34;2.93;;;0.80;;
1725;SDS011;41776;48.260;8.928;2023-12-22T03:04:01;2.47;;;0.90;;
1725;SDS011;41776;48.260;8.928;2023-12-22T03:06:27;2.90;;;1.00;;
1725;SDS011;41776;48.260;8.928;2023-12-22T03:08:53;2.07;;;0.90;;
1725;SDS011;41776;48.260;8.928;2023-12-22T03:11:20;5.07;;;1.30;;
1725;SDS011;41776;48.260;8.928;2023-12-22T03:13:48;6.70;;;1.47;;
1725;SDS011;41776;48.260;8.928;2023-12-22T03:16:14;8.07;;;1.30;;
1725;SDS011;41776;48.260;8.928;2023-12-22T03:18:41;8.83;;;1.70;;
1725;SDS011;41776;48.260;8.928;2023-12-22T03:21:07;8.30;;;1.93;;
1725;SDS011;41776;48.260;8.928;2023-12-22T03:23:33;11.80;;;1.87;;
1725;SDS011;41776;48.260;8.928;2023-12-22T03:26:02;11.83;;;1.77;;
1725;SDS011;41776;48.260;8.928;2023-12-22T03:28:29;16.63;;;2.00;;
1725;SDS011;41776;48.260;8.928;2023-12-22T03:31:00;8.20;;;2.33;;
1725;SDS011;41776;48.260;8.928;2023-12-22T03:33:26;12.60;;;2.17;;
1725;SDS011;41776;48.260;8.928;2023-12-22T03:35:53;15.20;;;2.30;;
1725;SDS011;41776;48.260;8.928;2023-12-22T03:38:19;12.57;;;1.90;;
1725;SDS011;41776;48.260;8.928;2023-12-22T03:40:45;13.10;;;2.03;;
1725;SDS011;41776;48.260;8.928;2023-12-22T03:43:12;16.63;;;2.77;;
1725;SDS011;41776;48.260;8.928;2023-12-22T03:45:38;8.60;;;2.33;;
1725;SDS011;41776;48.260;8.928;2023-12-22T03:48:06;10.07;;;2.03;;
1725;SDS011;41776;48.260;8.928;2023-12-22T03:50:33;10.10;;;1.90;;
1725;SDS011;41776;48.260;8.928;2023-12-22T03:52:59;16.43;;;2.30;;
1725;SDS011;41776;48.260;8.928;2023-12-22T03:55:26;10.67;;;2.20;;
1725;SDS011;41776;48.260;8.928;2023-12-22T03:57:52;12.90;;;2.03;;
1725;SDS011;41776;48.260;8.928;2023-12-22T04:00:19;17.20;;;1.90;;
1725;SDS011;41776;48.260;8.928;2023-12-22T04:02:45;9.80;;;2.20;;
1725;SDS011;41776;48.260;8.928;2023-12-22T04:05:16;6.27;;;1.90;;
1725;SDS011;41776;48.260;8.928;2023-12-22T04:07:42;15.30;;;2.30;;
1725;SDS011;41776;48.260;8.928;2023-12-22T04:10:11;13.37;;;1.90;;
1725;SDS011;41776;48.260;8.928;2023-12-22T04:12:37;10.80;;;2.13;;
1725;SDS011;41776;48.260;8.928;2023-12-22T04:15:04;10.27;;;2.20;;
1725;SDS011;41776;48.260;8.928;2023-12-22T04:17:32;12.50;;;2.40;;
1725;SDS011;41776;48.260;8.928;2023-12-22T04:19:58;8.93;;;2.33;;
1725;SDS011;41776;48.260;8.928;2023-12-22T04:22:26;12.17;;;2.30;;
1725;SDS011;41776;48.260;8.928;2023-12-22T04:24:52;10.67;;;2.03;;
1725;SDS011;41776;48.260;8.928;2023-12-22T04:27:19;17.03;;;2.23;;
1725;SDS011;41776;48.260;8.928;2023-12-22T04:29:45;12.27;;;1.70;;
1725;SDS011;41776;48.260;8.928;2023-12-22T04:32:12;11.30;;;1.97;;
1725;SDS011;41776;48.260;8.928;2023-12-22T04:34:38;9.87;;;1.80;;
1725;SDS011;41776;48.260;8.928;2023-12-22T04:37:05;8.97;;;2.60;;
1725;SDS011;41776;48.260;8.928;2023-12-22T04:39:33;10.13;;;2.00;;
1725;SDS011;41776;48.260;8.928;2023-12-22T04:41:59;7.60;;;2.10;;
1725;SDS011;41776;48.260;8.928;2023-12-22T04:44:25;8.27;;;3.17;;
1725;SDS011;41776;48.260;8.928;2023-12-22T04:46:52;9.50;;;2.07;;
1725;SDS011;41776;48.260;8.928;2023-12-22T04:49:18;12.37;;;3.10;;
1725;SDS011;41776;48.260;8.928;2023-12-22T04:51:45;10.27;;;2.07;;
1725;SDS011;41776;48.260;8.928;2023-12-22T04:54:11;10.60;;;2.50;;
1725;SDS011;41776;48.260;8.928;2023-12-22T04:56:39;9.73;;;1.80;;
1725;SDS011;41776;48.260;8.928;2023-12-22T04:59:05;13.77;;;2.47;;
1725;SDS011;41776;48.260;8.928;2023-12-22T05:01:33;12.47;;;2.10;;
1725;SDS011;41776;48.260;8.928;2023-12-22T05:03:59;25.33;;;3.40;;
1725;SDS011;41776;48.260;8.928;2023-12-22T05:06:27;14.43;;;2.30;;
1725;SDS011;41776;48.260;8.928;2023-12-22T05:08:54;14.90;;;2.50;;
1725;SDS011;41776;48.260;8.928;2023-12-22T05:11:21;9.47;;;2.10;;
1725;SDS011;41776;48.260;8.928;2023-12-22T05:13:49;13.10;;;1.90;;
1725;SDS011;41776;48.260;8.928;2023-12-22T05:16:15;11.97;;;2.37;;
1725;SDS011;41776;48.260;8.928;2023-12-22T05:18:42;8.60;;;1.93;;
1725;SDS011;41776;48.260;8.928;2023-12-22T05:21:11;17.93;;;2.50;;
1725;SDS011;41776;48.260;8.928;2023-12-22T05:23:38;8.17;;;2.10;;
1725;SDS011;41776;48.260;8.928;2023-12-22T05:26:04;14.27;;;2.37;;
1725;SDS011;41776;48.260;8.928;2023-12-22T05:28:31;17.57;;;2.03;;
1725;SDS011;41776;48.260;8.928;2023-12-22T05:30:59;9.20;;;2.63;;
1725;SDS011;41776;48.260;8.928;2023-12-22T05:33:26;18.47;;;2.70;;
1725;SDS011;41776;48.260;8.928;2023-12-22T05:35:52;9.23;;;2.20;;
1725;SDS011;41776;48.260;8.928;2023-12-22T05:38:19;7.63;;;1.63;;
1725;SDS011;41776;48.260;8.928;2023-12-22T05:40:45;15.47;;;2.03;;
1725;SDS011;41776;48.260;8.928;2023-12-22T05:43:13;16.23;;;2.53;;
1725;SDS011;41776;48.260;8.928;2023-12-22T05:45:39;7.33;;;2.03;;
1725;SDS011;41776;48.260;8.928;2023-12-22T05:48:07;16.60;;;3.40;;
1725;SDS011;41776;48.260;8.928;2023-12-22T05:50:34;9.43;;;2.27;;
1725;SDS011;41776;48.260;8.928;2023-12-22T05:53:00;13.20;;;2.73;;
1725;SDS011;41776;48.260;8.928;2023-12-22T05:55:27;20.50;;;2.43;;
1725;SDS011;41776;48.260;8.928;2023-12-22T05:57:54;18.20;;;2.60;;
1725;SDS011;41776;48.260;8.928;2023-12-22T06:00:21;18.30;;;2.30;;
1725;SDS011;41776;48.260;8.928;2023-12-22T06:02:47;16.13;;;2.13;;
1725;SDS011;41776;48.260;8.928;2023-12-22T06:05:15;14.23;;;2.40;;
1725;SDS011;41776;48.260;8.928;2023-12-22T06:07:42;17.00;;;2.50;;
1725;SDS011;41776;48.260;8.928;2023-12-22T06:10:08;17.23;;;2.30;;
1725;SDS011;41776;48.260;8.928;2023-12-22T06:12:35;11.43;;;2.23;;
1725;SDS011;41776;48.260;8.928;2023-12-22T06:15:02;15.70;;;2.37;;
1725;SDS011;41776;48.260;8.928;2023-12-22T06:17:29;19.90;;;1.97;;
1725;SDS011;41776;48.260;8.928;2023-12-22T06:19:55;14.37;;;2.07;;
1725;SDS011;41776;48.260;8.928;2023-12-22T06:22:23;8.50;;;1.80;;
1725;SDS011;41776;48.260;8.928;2023-12-22T06:24:50;15.43;;;2.57;;
1725;SDS011;41776;48.260;8.928;2023-12-22T06:27:16;12.57;;;2.47;;
1725;SDS011;41776;48.260;8.928;2023-12-22T06:29:43;14.30;;;1.87;;
1725;SDS011;41776;48.260;8.928;2023-12-22T06:32:09;8.13;;;2.20;;
1725;SDS011;41776;48.260;8.928;2023-12-22T06:34:37;20.23;;;2.63;;
1725;SDS011;41776;48.260;8.928;2023-12-22T06:37:06;10.40;;;2.20;;
1725;SDS011;41776;48.260;8.928;2023-12-22T06:39:35;12.77;;;2.47;;
1725;SDS011;41776;48.260;8.928;2023-12-22T06:42:03;9.37;;;2.03;;
1725;SDS011;41776;48.260;8.928;2023-12-22T06:44:35;9.03;;;1.77;;
1725;SDS011;41776;48.260;8.928;2023-12-22T06:47:02;15.03;;;2.20;;
1725;SDS011;41776;48.260;8.928;2023-12-22T06:49:30;16.83;;;2.70;;
1725;SDS011;41776;48.260;8.928;2023-12-22T06:51:58;12.33;;;2.60;;
1725;SDS011;41776;48.260;8.928;2023-12-22T06:54:25;9.97;;;2.33;;
1725;SDS011;41776;48.260;8.928;2023-12-22T06:56:52;21.73;;;2.40;;
1725;SDS011;41776;48.260;8.928;2023-12-22T06:59:20;14.07;;;2.00;;
1725;SDS011;41776;48.260;8.928;2023-12-22T07:01:46;12.13;;;2.10;;
1725;SDS011;41776;48.260;8.928;2023-12-22T07:04:13;16.67;;;2.57;;
1725;SDS011;41776;48.260;8.928;2023-12-22T07:06:40;17.07;;;2.80;;
1725;SDS011;41776;48.260;8.928;2023-12-22T07:11:59;15.17;;;2.77;;
1725;SDS011;41776;48.260;8.928;2023-12-22T07:14:26;8.47;;;2.20;;
1725;SDS011;41776;48.260;8.928;2023-12-22T07:16:52;25.93;;;3.30;;
1725;SDS011;41776;48.260;8.928;2023-12-22T07:19:19;13.37;;;2.90;;
1725;SDS011;41776;48.260;8.928;2023-12-22T07:21:45;12.97;;;2.30;;
1725;SDS011;41776;48.260;8.928;2023-12-22T07:24:12;12.83;;;2.73;;
1725;SDS011;41776;48.260;8.928;2023-12-22T07:26:38;17.20;;;2.70;;
1725;SDS011;41776;48.260;8.928;2023-12-22T07:29:07;17.90;;;2.60;;
1725;SDS011;41776;48.260;8.928;2023-12-22T07:31:33;11.90;;;2.80;;
1725;SDS011;41776;48.260;8.928;2023-12-22T07:34:00;12.37;;;2.27;;
1725;SDS011;41776;48.260;8.928;2023-12-22T07:36:26;17.90;;;2.37;;
1725;SDS011;41776;48.260;8.928;2023-12-22T07:38:53;13.23;;;1.90;;
1725;SDS011;41776;48.260;8.928;2023-12-22T07:41:22;16.57;;;2.10;;
1725;SDS011;41776;48.260;8.928;2023-12-22T07:43:48;9.37;;;2.07;;
1725;SDS011;41776;48.260;8.928;2023-12-22T07:46:19;17.40;;;2.40;;
1725;SDS011;41776;48.260;8.928;2023-12-22T07:48:47;10.57;;;2.10;;
1725;SDS011;41776;48.260;8.928;2023-12-22T07:51:19;12.27;;;2.30;;
1725;SDS011;41776;48.260;8.928;2023-12-22T07:53:47;13.30;;;2.13;;
1725;SDS011;41776;48.260;8.928;2023-12-22T07:56:14;18.33;;;2.37;;
1725;SDS011;41776;48.260;8.928;2023-12-22T07:58:40;8.03;;;2.07;;
1725;SDS011;41776;48.260;8.928;2023-12-22T08:01:07;10.20;;;2.33;;
1725;SDS011;41776;48.260;8.928;2023-12-22T08:03:37;8.83;;;1.93;;
1725;SDS011;41776;48.260;8.928;2023-12-22T08:06:04;12.63;;;4.00;;
1725;SDS011;41776;48.260;8.928;2023-12-22T08:08:31;16.17;;;2.57;;
1725;SDS011;41776;48.260;8.928;2023-12-22T08:11:04;17.87;;;2.73;;
1725;SDS011;41776;48.260;8.928;2023-12-22T08:13:30;11.87;;;1.80;;
1725;SDS011;41776;48.260;8.928;2023-12-22T08:15:57;15.73;;;1.83;;
1725;SDS011;41776;48.260;8.928;2023-12-22T08:18:23;6.50;;;2.17;;
1725;SDS011;41776;48.260;8.928;2023-12-22T08:20:51;18.97;;;2.20;;
1725;SDS011;41776;48.260;8.928;2023-12-22T08:23:20;12.93;;;2.10;;
1725;SDS011;41776;48.260;8.928;2023-12-22T08:25:50;10.27;;;1.80;;
1725;SDS011;41776;48.260;8.928;2023-12-22T08:28:16;9.20;;;2.00;;
1725;SDS011;41776;48.260;8.928;2023-12-22T08:30:42;18.40;;;2.20;;
1725;SDS011;41776;48.260;8.928;2023-12-22T08:33:12;10.83;;;1.80;;
1725;SDS011;41776;48.260;8.928;2023-12-22T08:35:39;7.80;;;1.53;;
1725;SDS011;41776;48.260;8.928;2023-12-22T08:38:07;6.37;;;1.60;;
1725;SDS011;41776;48.260;8.928;2023-12-22T08:40:33;9.57;;;1.70;;
1725;SDS011;41776;48.260;8.928;2023-12-22T08:43:00;8.53;;;1.60;;
1725;SDS011;41776;48.260;8.928;2023-12-22T08:45:27;12.10;;;2.10;;
1725;SDS011;41776;48.260;8.928;2023-12-22T08:47:54;5.87;;;2.00;;
1725;SDS011;41776;48.260;8.928;2023-12-22T08:50:24;5.97;;;2.20;;
1725;SDS011;41776;48.260;8.928;2023-12-22T08:52:51;10.63;;;2.00;;
1725;SDS011;41776;48.260;8.928;2023-12-22T08:55:19;7.23;;;1.63;;
1725;SDS011;41776;48.260;8.928;2023-12-22T08:57:46;7.40;;;1.87;;
1725;SDS011;41776;48.260;8.928;2023-12-22T09:00:13;9.03;;;1.93;;
1725;SDS011;41776;48.260;8.928;2023-12-22T09:02:40;7.93;;;1.77;;
1725;SDS011;41776;48.260;8.928;2023-12-22T09:05:07;6.93;;;1.47;;
1725;SDS011;41776;48.260;8.928;2023-12-22T09:07:34;10.80;;;1.60;;
1725;SDS011;41776;48.260;8.928;2023-12-22T09:10:04;5.03;;;1.53;;
1725;SDS011;41776;48.260;8.928;2023-12-22T09:12:32;5.67;;;1.50;;
1725;SDS011;41776;48.260;8.928;2023-12-22T09:14:59;4.40;;;1.57;;
1725;SDS011;41776;48.260;8.928;2023-12-22T09:17:26;6.47;;;1.60;;
1725;SDS011;41776;48.260;8.928;2023-12-22T09:19:52;10.50;;;1.77;;
1725;SDS011;41776;48.260;8.928;2023-12-22T09:22:19;7.20;;;1.87;;
1725;SDS011;41776;48.260;8.928;2023-12-22T09:24:46;10.83;;;1.93;;
1725;SDS011;41776;48.260;8.928;2023-12-22T09:27:13;8.23;;;1.77;;
1725;SDS011;41776;48.260;8.928;2023-12-22T09:29:41;11.20;;;2.00;;
1725;SDS011;41776;48.260;8.928;2023-12-22T09:32:08;8.97;;;1.50;;
1725;SDS011;41776;48.260;8.928;2023-12-22T09:34:34;6.63;;;1.30;;
1725;SDS011;41776;48.260;8.928;2023-12-22T09:37:01;4.73;;;1.53;;
1725;SDS011;41776;48.260;8.928;2023-12-22T09:39:30;10.07;;;2.10;;
1725;SDS011;41776;48.260;8.928;2023-12-22T09:41:57;7.00;;;1.53;;
1725;SDS011;41776;48.260;8.928;2023-12-22T09:44:24;7.13;;;1.77;;
1725;SDS011;41776;48.260;8.928;2023-12-22T09:46:54;6.10;;;1.77;;
1725;SDS011;41776;48.260;8.928;2023-12-22T09:49:23;8.63;;;1.97;;
1725;SDS011;41776;48.260;8.928;2023-12-22T09:51:52;7.60;;;2.13;;
1725;SDS011;41776;48.260;8.928;2023-12-22T09:54:20;3.10;;;1.83;;
1725;SDS011;41776;48.260;8.928;2023-12-22T09:56:50;8.33;;;1.93;;
1725;SDS011;41776;48.260;8.928;2023-12-22T09:59:18;13.23;;;2.00;;
1725;SDS011;41776;48.260;8.928;2023-12-22T10:01:47;8.63;;;1.73;;
1725;SDS011;41776;48.260;8.928;2023-12-22T10:04:17;9.37;;;2.20;;
1725;SDS011;41776;48.260;8.928;2023-12-22T10:06:46;13.53;;;2.30;;
1725;SDS011;41776;48.260;8.928;2023-12-22T10:09:14;9.77;;;2.23;;
1725;SDS011;41776;48.260;8.928;2023-12-22T10:11:43;14.27;;;1.80;;
1725;SDS011;41776;48.260;8.928;2023-12-22T10:14:10;9.13;;;2.37;;
1725;SDS011;41776;48.260;8.928;2023-12-22T10:16:38;16.57;;;3.50;;
1725;SDS011;41776;48.260;8.928;2023-12-22T10:19:06;17.37;;;5.17;;
1725;SDS011;41776;48.260;8.928;2023-12-22T10:21:35;7.80;;;2.23;;
1725;SDS011;41776;48.260;8.928;2023-12-22T10:24:01;15.80;;;3.03;;
1725;SDS011;41776;48.260;8.928;2023-12-22T10:26:28;12.03;;;2.53;;
1725;SDS011;41776;48.260;8.928;2023-12-22T10:28:54;19.50;;;2.90;;
1725;SDS011;41776;48.260;8.928;2023-12-22T10:31:24;19.53;;;2.97;;
1725;SDS011;41776;48.260;8.928;2023-12-22T10:33:50;28.00;;;3.57;;
1725;SDS011;41776;48.260;8.928;2023-12-22T10:36:17;22.63;;;3.90;;
1725;SDS011;41776;48.260;8.928;2023-12-22T10:38:45;23.33;;;4.23;;
1725;SDS011;41776;48.260;8.928;2023-12-22T10:41:11;16.53;;;3.13;;
1725;SDS011;41776;48.260;8.928;2023-12-22T10:43:38;24.83;;;3.20;;
1725;SDS011;41776;48.260;8.928;2023-12-22T10:46:05;11.67;;;2.43;;
1725;SDS011;41776;48.260;8.928;2023-12-22T10:48:33;12.73;;;2.20;;
1725;SDS011;41776;48.260;8.928;2023-12-22T10:50:59;19.03;;;2.67;;
1725;SDS011;41776;48.260;8.928;2023-12-22T10:53:26;15.87;;;3.70;;
1725;SDS011;41776;48.260;8.928;2023-12-22T10:55:54;13.57;;;2.30;;
1725;SDS011;41776;48.260;8.928;2023-12-22T10:58:20;13.87;;;2.80;;
1725;SDS011;41776;48.260;8.928;2023-12-22T11:00:47;11.63;;;2.77;;
1725;SDS011;41776;48.260;8.928;2023-12-22T11:03:17;9.07;;;3.03;;
1725;SDS011;41776;48.260;8.928;2023-12-22T11:05:45;14.83;;;2.20;;
1725;SDS011;41776;48.260;8.928;2023-12-22T11:08:14;8.07;;;2.10;;
1725;SDS011;41776;48.260;8.928;2023-12-22T11:10:42;10.37;;;1.87;;
1725;SDS011;41776;48.260;8.928;2023-12-22T11:13:11;8.87;;;2.60;;
1725;SDS011;41776;48.260;8.928;2023-12-22T11:15:39;10.53;;;2.40;;
1725;SDS011;41776;48.260;8.928;2023-12-22T11:18:06;6.07;;;1.60;;
1725;SDS011;41776;48.260;8.928;2023-12-22T11:20:34;12.97;;;2.00;;
1725;SDS011;41776;48.260;8.928;2023-12-22T11:23:03;8.90;;;2.07;;
1725;SDS011;41776;48.260;8.928;2023-12-22T11:25:31;8.83;;;2.20;;
1725;SDS011;41776;48.260;8.928;2023-12-22T11:27:58;12.47;;;2.93;;
1725;SDS011;41776;48.260;8.928;2023-12-22T11:30:27;10.45;;;2.90;;
1725;SDS011;41776;48.260;8.928;2023-12-22T11:32:55;6.80;;;2.20;;
1725;SDS011;41776;48.260;8.928;2023-12-22T11:35:23;3.27;;;1.77;;
1725;SDS011;41776;48.260;8.928;2023-12-22T11:37:50;6.13;;;1.83;;
1725;SDS011;41776;48.260;8.928;2023-12-22T11:40:18;4.60;;;1.60;;
1725;SDS011;41776;48.260;8.928;2023-12-22T11:42:45;9.63;;;1.60;;
1725;SDS011;41776;48.260;8.928;2023-12-22T11:45:15;4.83;;;1.73;;
1725;SDS011;41776;48.260;8.928;2023-12-22T11:47:45;13.40;;;2.90;;
1725;SDS011;41776;48.260;8.928;2023-12-22T11:50:13;3.60;;;1.67;;
1725;SDS011;41776;48.260;8.928;2023-12-22T11:52:56;2.93;;;1.50;;
1725;SDS011;41776;48.260;8.928;2023-12-22T11:58:34;6.03;;;1.80;;
1725;SDS011;41776;48.260;8.928;2023-12-22T12:01:02;8.77;;;1.90;;
1725;SDS011;41776;48.260;8.928;2023-12-22T12:03:31;8.03;;;2.40;;
1725;SDS011;41776;48.260;8.928;2023-12-22T12:06:10;8.93;;;2.37;;
1725;SDS011;41776;48.260;8.928;2023-12-22T12:08:52;12.23;;;3.00;;
1725;SDS011;41776;48.260;8.928;2023-12-22T12:11:19;3.97;;;1.50;;
1725;SDS011;41776;48.260;8.928;2023-12-22T12:13:46;8.03;;;1.70;;
1725;SDS011;41776;48.260;8.928;2023-12-22T12:16:13;4.70;;;1.60;;
1725;SDS011;41776;48.260;8.928;2023-12-22T12:18:42;7.37;;;1.70;;
1725;SDS011;41776;48.260;8.928;2023-12-22T12:21:10;7.47;;;1.50;;
1725;SDS011;41776;48.260;8.928;2023-12-22T12:23:37;6.60;;;1.50;;
1725;SDS011;41776;48.260;8.928;2023-12-22T12:26:05;2.30;;;1.10;;
1725;SDS011;41776;48.260;8.928;2023-12-22T12:28:33;2.93;;;1.27;;
1725;SDS011;41776;48.260;8.928;2023-12-22T12:31:07;1.83;;;1.13;;
1725;SDS011;41776;48.260;8.928;2023-12-22T12:33:44;6.27;;;1.20;;
1725;SDS011;41776;48.260;8.928;2023-12-22T12:36:17;3.83;;;1.30;;
1725;SDS011;41776;48.260;8.928;2023-12-22T12:38:48;3.47;;;1.10;;
1725;SDS011;41776;48.260;8.928;2023-12-22T12:41:22;4.20;;;1.60;;
1725;SDS011;41776;48.260;8.928;2023-12-22T12:43:55;8.37;;;3.03;;
1725;SDS011;41776;48.260;8.928;2023-12-22T12:46:31;6.47;;;2.23;;
1725;SDS011;41776;48.260;8.928;2023-12-22T12:49:03;4.80;;;1.50;;
1725;SDS011;41776;48.260;8.928;2023-12-22T12:51:34;3.93;;;1.60;;
1725;SDS011;41776;48.260;8.928;2023-12-22T12:54:02;3.37;;;1.83;;
1725;SDS011;41776;48.260;8.928;2023-12-22T12:56:29;11.83;;;2.47;;
1725;SDS011;41776;48.260;8.928;2023-12-22T12:58:56;11.00;;;2.80;;
1725;SDS011;41776;48.260;8.928;2023-12-22T13:01:24;13.93;;;3.80;;
1725;SDS011;41776;48.260;8.928;2023-12-22T13:03:51;7.33;;;2.27;;
1725;SDS011;41776;48.260;8.928;2023-12-22T13:06:20;7.23;;;2.70;;
1725;SDS011;41776;48.260;8.928;2023-12-22T13:08:47;8.37;;;2.50;;
1725;SDS011;41776;48.260;8.928;2023-12-22T13:11:14;10.30;;;3.57;;
1725;SDS011;41776;48.260;8.928;2023-12-22T13:13:41;7.00;;;2.70;;
1725;SDS011;41776;48.260;8.928;2023-12-22T13:16:08;7.37;;;2.53;;
1725;SDS011;41776;48.260;8.928;2023-12-22T13:18:35;5.57;;;1.80;;
1725;SDS011;41776;48.260;8.928;2023-12-22T13:21:02;4.10;;;1.60;;
1725;SDS011;41776;48.260;8.928;2023-12-22T13:23:31;1.67;;;0.87;;
1725;SDS011;41776;48.260;8.928;2023-12-22T13:25:57;1.47;;;0.90;;
1725;SDS011;41776;48.260;8.928;2023-12-22T13:28:32;1.33;;;1.07;;
1725;SDS011;41776;48.260;8.928;2023-12-22T13:31:01;2.23;;;1.10;;
1725;SDS011;41776;48.260;8.928;2023-12-22T13:33:33;2.43;;;1.43;;
1725;SDS011;41776;48.260;8.928;2023-12-22T13:36:00;2.60;;;0.97;;
1725;SDS011;41776;48.260;8.928;2023-12-22T13:38:28;1.47;;;1.07;;
1725;SDS011;41776;48.260;8.928;2023-12-22T13:40:56;3.13;;;2.37;;
1725;SDS011;41776;48.260;8.928;2023-12-22T13:43:22;2.23;;;1.23;;
1725;SDS011;41776;48.260;8.928;2023-12-22T13:45:54;4.47;;;2.80;;
1725;SDS011;41776;48.260;8.928;2023-12-22T13:48:21;1.10;;;1.00;;
1725;SDS011;41776;48.260;8.928;2023-12-22T13:50:54;4.27;;;2.23;;
1725;SDS011;41776;48.260;8.928;2023-12-22T13:53:22;4.47;;;2.20;;
1725;SDS011;41776;48.260;8.928;2023-12-22T13:55:53;1.77;;;1.20;;
1725;SDS011;41776;48.260;8.928;2023-12-22T13:58:22;1.57;;;1.23;;
1725;SDS011;41776;48.260;8.928;2023-12-22T14:00:48;3.07;;;1.90;;
1725;SDS011;41776;48.260;8.928;2023-12-22T14:03:15;0.87;;;0.87;;
1725;SDS011;41776;48.260;8.928;2023-12-22T14:05:42;2.33;;;1.10;;
1725;SDS011;41776;48.260;8.928;2023-12-22T14:08:09;2.37;;;1.57;;
1725;SDS011;41776;48.260;8.928;2023-12-22T14:10:35;1.00;;;1.00;;
1725;SDS011;41776;48.260;8.928;2023-12-22T14:13:03;1.63;;;1.07;;
1725;SDS011;41776;48.260;8.928;2023-12-22T14:15:30;2.20;;;0.97;;
1725;SDS011;41776;48.260;8.928;2023-12-22T14:17:56;2.53;;;1.07;;
1725;SDS011;41776;48.260;8.928;2023-12-22T14:20:23;4.10;;;1.37;;
1725;SDS011;41776;48.260;8.928;2023-12-22T14:22:50;1.17;;;1.10;;
1725;SDS011;41776;48.260;8.928;2023-12-22T14:25:16;1.20;;;1.03;;
1725;SDS011;41776;48.260;8.928;2023-12-22T14:27:43;1.50;;;1.00;;
1725;SDS011;41776;48.260;8.928;2023-12-22T14:30:11;1.77;;;1.37;;
1725;SDS011;41776;48.260;8.928;2023-12-22T14:32:38;1.90;;;0.70;;
1725;SDS011;41776;48.260;8.928;2023-12-22T14:35:05;0.90;;;0.77;;
1725;SDS011;41776;48.260;8.928;2023-12-22T14:37:32;6.87;;;3.43;;
1725;SDS011;41776;48.260;8.928;2023-12-22T14:39:59;1.90;;;1.33;;
1725;SDS011;41776;48.260;8.928;2023-12-22T14:42:26;2.43;;;1.40;;
1725;SDS011;41776;48.260;8.928;2023-12-22T14:44:52;1.57;;;1.40;;
1725;SDS011;41776;48.260;8.928;2023-12-22T14:47:20;0.77;;;0.77;;
1725;SDS011;41776;48.260;8.928;2023-12-22T14:49:47;1.60;;;1.07;;
1725;SDS011;41776;48.260;8.928;2023-12-22T14:52:13;0.83;;;0.83;;
1725;SDS011;41776;48.260;8.928;2023-12-22T14:54:40;2.03;;;1.40;;
1725;SDS011;41776;48.260;8.928;2023-12-22T14:57:07;0.90;;;0.83;;
1725;SDS011;41776;48.260;8.928;2023-12-22T14:59:33;1.37;;;0.93;;
1725;SDS011;41776;48.260;8.928;2023-12-22T15:02:00;0.83;;;0.73;;
1725;SDS011;41776;48.260;8.928;2023-12-22T15:04:28;2.47;;;1.70;;